Terminal Aerodrome Forecast
Issued by NWS Charleston, WV

Home | Current Version | Previous Version | Text Only | Print | Product List | Glossary On
Versions: 1 2 3 4 5 6 7 8 9 10 11 12 13 14 15 16 17 18 19 20 21 22 23 24 25 26 27 28 29
000
FTUS41 KRLX 010252 AAB
TAFCRW
TAF AMD
KCRW 010252Z 0103/0124 VRB03KT 6SM -SHRA BKN012
      TEMPO 0103/0105 4SM -SHRA BR SCT008 BKN035
     FM010500 00000KT 6SM BR BKN060
     FM010900 00000KT 4SM BR FEW001 OVC040
     FM011500 00000KT P6SM BKN025
     FM011900 32004KT P6SM BKN035
     FM012000 32004KT P6SM SCT035=

USA.gov is the U.S. government's official web portal to all federal, state and local government web resources and services.